Terminal Aerodrome Forecast
Issued by NWS Omaha/Valley, NE

Home | Current Version | Previous Version | Text Only | Print | Product List | Glossary On
Versions: 1 2 3 4 5 6 7 8 9 10 11 12 13 14 15 16 17 18 19 20 21 22 23 24
783
FTUS43 KOAX 201120
TAFOMA
TAF
KOMA 201120Z 2012/2112 16013KT P6SM FEW250 WS020/21040KT
     FM201500 17016G30KT P6SM SCT250
     FM202100 16022G38KT P6SM SCT200
     FM210000 16018G32KT P6SM BKN110 PROB30 2106/2110 4SM -SHRA
      OVC025
     FM211000 17017G25KT P6SM OVC020=

USA.gov is the U.S. government's official web portal to all federal, state and local government web resources and services.